createdAt,value
2018-12-17T06:45:00.565Z,11.33
2018-12-17T07:16:47.633Z,13.53
2018-12-17T07:22:26.408Z,13.13
2018-12-17T07:45:16.382Z,7.50
2018-12-17T07:47:57.317Z,7.97
2018-12-17T07:50:37.740Z,7.20
2018-12-17T07:56:07.144Z,8.57
2018-12-17T07:58:42.739Z,9.33
2018-12-17T08:04:06.015Z,10.17
2018-12-17T08:06:44.266Z,10.57
2018-12-17T08:09:29.537Z,9.77
2018-12-17T08:15:00.404Z,8.43
2018-12-17T08:17:32.158Z,9.87
2018-12-17T08:20:13.884Z,9.53
2018-12-17T08:22:54.307Z,8.90
2018-12-17T08:25:27.576Z,9.63
2018-12-17T08:28:02.081Z,11.17
2018-12-17T08:33:36.613Z,10.83
2018-12-17T08:36:17.029Z,10.03
2018-12-17T08:38:57.934Z,13.47
2018-12-17T08:41:29.302Z,11.87
2018-12-17T08:44:09.086Z,10.90
2018-12-17T08:46:40.614Z,9.67
2018-12-17T08:49:11.571Z,12.07
2018-12-17T08:54:46.116Z,8.70
2018-12-17T08:57:17.525Z,8.73
2018-12-17T08:59:48.509Z,10.13
2018-12-17T09:05:08.791Z,8.03
2018-12-17T09:07:40.795Z,9.07
2018-12-17T09:10:20.588Z,8.77
2018-12-17T09:15:46.469Z,7.67
2018-12-17T09:18:19.918Z,11.37
2018-12-17T09:21:00.166Z,15.60
2018-12-17T09:23:39.916Z,13.33
2018-12-17T09:26:11.247Z,17.43
2018-12-17T09:28:42.474Z,12.00
2018-12-17T09:34:05.763Z,9.73
2018-12-17T09:36:39.232Z,9.13
2018-12-17T09:42:05.454Z,10.73
2018-12-17T09:44:36.784Z,12.13
2018-12-17T09:47:09.348Z,10.33
2018-12-17T09:49:47.627Z,14.40
2018-12-17T09:52:26.679Z,10.30
2018-12-17T09:54:58.517Z,9.77
2018-12-17T10:00:15.505Z,10.43
2018-12-17T10:02:46.641Z,12.20
2018-12-17T10:05:18.445Z,10.07
2018-12-17T10:07:58.316Z,9.40
2018-12-17T10:10:32.268Z,8.47
2018-12-17T10:13:03.753Z,8.70
2018-12-17T10:15:37.926Z,10.20
2018-12-17T10:18:09.718Z,8.67
2018-12-17T10:26:30.668Z,9.00
2018-12-17T10:31:56.300Z,7.70
2018-12-17T10:37:29.001Z,9.07
2018-12-17T10:40:08.985Z,8.37
2018-12-17T10:42:43.796Z,9.03
2018-12-17T10:45:15.823Z,9.80
2018-12-17T10:47:47.875Z,10.33
2018-12-17T10:50:24.344Z,9.23
2018-12-17T10:55:51.447Z,10.97
2018-12-17T10:58:22.678Z,10.53
2018-12-17T11:01:00.127Z,11.77
2018-12-17T11:09:29.022Z,12.27
2018-12-17T11:12:03.328Z,14.07
2018-12-17T11:14:37.538Z,12.53
2018-12-17T11:17:18.670Z,14.73
2018-12-17T11:19:59.762Z,11.70
2018-12-17T11:22:40.244Z,12.43
2018-12-17T11:25:20.645Z,13.43
2018-12-17T11:27:55.400Z,13.83
2018-12-17T11:30:37.286Z,12.57
2018-12-17T11:33:17.313Z,10.47
2018-12-17T11:35:58.408Z,11.17
2018-12-17T11:38:30.484Z,13.17
2018-12-17T11:41:11.540Z,13.03
2018-12-17T11:43:52.119Z,11.83
2018-12-17T11:46:32.453Z,13.07
2018-12-17T11:49:06.044Z,12.63
2018-12-17T11:54:30.261Z,12.27
2018-12-17T11:57:10.727Z,12.80
2018-12-17T11:59:44.783Z,11.47
2018-12-17T12:02:25.729Z,11.77
2018-12-17T12:07:51.156Z,13.43
2018-12-17T12:10:31.319Z,12.37
2018-12-17T12:13:02.784Z,14.23
2018-12-17T12:15:37.354Z,13.10
2018-12-17T12:18:12.006Z,12.53
2018-12-17T12:20:52.824Z,16.20
2018-12-17T12:23:33.885Z,10.70
2018-12-17T12:26:14.501Z,10.97
2018-12-17T12:28:46.078Z,12.90
2018-12-17T12:31:26.387Z,11.13
2018-12-17T12:37:02.625Z,10.30
2018-12-17T12:39:46.891Z,10.93
2018-12-17T12:48:02.335Z,6.70
2018-12-17T12:50:42.952Z,6.77
2018-12-17T12:59:04.460Z,8.07
2018-12-17T13:01:39.175Z,8.70
2018-12-17T13:13:08.407Z,8.10
2018-12-17T13:15:55.207Z,9.07
2018-12-17T13:18:30.827Z,9.87
2018-12-17T13:21:10.761Z,11.70
2018-12-17T13:26:43.779Z,9.33
2018-12-17T13:29:19.076Z,10.20
2018-12-17T13:31:59.976Z,11.23
2018-12-17T13:34:40.089Z,13.30
2018-12-17T13:37:20.523Z,9.73
2018-12-17T13:45:38.070Z,14.90
2018-12-17T13:48:14.098Z,14.40
2018-12-17T13:50:54.753Z,12.10
2018-12-17T13:53:36.319Z,12.70
2018-12-17T13:56:17.308Z,14.33
2018-12-17T13:58:56.987Z,19.57
2018-12-17T14:01:38.621Z,13.87
2018-12-17T14:04:18.246Z,13.73
2018-12-17T14:06:52.246Z,16.93
2018-12-17T14:09:27.947Z,16.50
2018-12-17T14:12:08.868Z,18.57
2018-12-17T14:14:43.030Z,20.13
2018-12-17T14:17:27.002Z,19.27
2018-12-17T14:22:52.291Z,24.13
2018-12-17T14:25:32.518Z,19.20
2018-12-17T14:28:05.078Z,25.93
2018-12-17T14:30:45.293Z,23.17
2018-12-17T14:39:05.075Z,29.07
2018-12-17T14:44:40.800Z,25.70
2018-12-17T14:47:26.591Z,24.83
2018-12-17T14:53:02.101Z,27.47
2018-12-17T17:57:50.217Z,19.73
2018-12-17T18:32:30.567Z,19.00
2018-12-17T18:49:26.506Z,24.97
2018-12-17T18:57:53.705Z,23.70
2018-12-17T20:13:33.475Z,27.67
2018-12-17T20:51:27.184Z,31.93
2018-12-17T20:53:58.628Z,30.93
2018-12-17T20:56:29.892Z,34.97
2018-12-17T20:59:00.964Z,32.23
2018-12-17T21:01:45.184Z,28.80
2018-12-17T21:04:25.109Z,29.90
2018-12-17T21:07:05.144Z,30.90
2018-12-17T21:09:36.227Z,33.63
2018-12-17T21:12:07.347Z,31.50
2018-12-17T21:14:41.602Z,27.73
2018-12-17T21:17:21.860Z,28.37
2018-12-17T21:19:53.673Z,29.63
2018-12-17T21:22:33.741Z,31.70
2018-12-17T21:25:04.975Z,33.20
2018-12-17T21:27:36.371Z,27.30
2018-12-17T21:30:16.768Z,28.57
2018-12-17T21:32:56.773Z,28.27
2018-12-17T21:35:37.864Z,33.83
2018-12-17T21:38:09.279Z,27.43
2018-12-17T21:40:53.571Z,27.57
2018-12-17T21:46:24.087Z,28.47
2018-12-17T21:48:55.535Z,28.93
2018-12-17T21:51:37.394Z,30.43
2018-12-17T21:54:17.371Z,33.87
2018-12-17T21:56:57.580Z,28.43
2018-12-17T21:59:31.827Z,31.73
2018-12-17T22:02:12.441Z,28.13
2018-12-17T22:07:36.428Z,28.33
2018-12-17T22:10:16.260Z,28.27
2018-12-17T22:12:50.645Z,26.53
2018-12-17T22:15:22.328Z,25.57
2018-12-17T22:17:57.861Z,31.03
2018-12-17T22:20:37.872Z,23.17
2018-12-17T22:23:18.820Z,28.83
2018-12-17T22:25:59.177Z,23.53
2018-12-17T22:28:31.527Z,26.80
2018-12-17T22:31:11.260Z,24.13
2018-12-17T22:33:51.401Z,23.10
2018-12-17T22:39:26.707Z,26.63
2018-12-17T22:42:06.924Z,24.63
2018-12-17T22:47:34.146Z,25.83
2018-12-17T22:50:14.686Z,22.67
2018-12-17T22:52:48.500Z,26.77
2018-12-17T22:55:28.492Z,24.83
2018-12-17T22:57:59.792Z,23.60
2018-12-17T23:03:27.769Z,24.67
2018-12-17T23:06:07.478Z,26.50
2018-12-17T23:08:47.323Z,23.50
2018-12-17T23:14:16.041Z,28.40
2018-12-17T23:16:55.988Z,26.27
2018-12-17T23:19:27.436Z,28.17
2018-12-17T23:24:56.703Z,25.93
2018-12-17T23:27:37.277Z,28.00
2018-12-17T23:30:17.262Z,27.60
2018-12-17T23:32:48.925Z,29.90
2018-12-17T23:35:29.229Z,31.57
2018-12-17T23:38:10.018Z,28.50
2018-12-17T23:40:41.332Z,30.60
2018-12-17T23:43:21.036Z,27.13
2018-12-17T23:46:03.167Z,31.77
2018-12-17T23:48:45.022Z,26.90
2018-12-17T23:51:16.396Z,30.73
2018-12-17T23:53:57.148Z,28.93
2018-12-17T23:56:36.894Z,27.03
2018-12-17T23:59:17.321Z,25.00
